Time;durP1;ratioP1;P1;durP2;ratioP2;P2;SDS_P1;SDS_P2;PMS_P1;PMS_P2;Temp;Humidity;BMP_temperature;BMP_pressure;BME280_temperature;BME280_humidity;BME280_pressure;Samples;Min_cycle;Max_cycle;Signal;HPM_P1;HPM_P2
2022/02/07 00:00:40;;;;;;;0.10;0.10;;;;;;;3.00;83.80;94813.02;107319;1268;157699;-83
2022/02/07 00:03:21;;;;;;;0.10;0.00;;;;;;;3.10;83.30;94812.88;107696;1270;99398;-83
2022/02/07 00:05:53;;;;;;;0.00;0.00;;;;;;;3.14;82.78;94817.91;107506;1268;123504;-82
2022/02/07 00:08:24;;;;;;;0.00;0.00;;;;;;;3.13;82.65;94823.75;107385;1268;147205;-83
2022/02/07 00:10:55;;;;;;;0.20;0.20;;;;;;;3.08;82.61;94815.81;107018;1270;159659;-83
2022/02/07 00:13:26;;;;;;;0.10;0.10;;;;;;;3.03;82.82;94811.04;107318;1269;185061;-83
2022/02/07 00:15:57;;;;;;;0.10;0.10;;;;;;;3.03;82.91;94818.15;107344;1270;151089;-83
2022/02/07 00:18:29;;;;;;;0.50;0.30;;;;;;;3.03;82.79;94810.52;107132;1270;140142;-83
2022/02/07 00:21:00;;;;;;;0.90;0.30;;;;;;;3.08;82.77;94801.24;107570;1268;95531;-83
2022/02/07 00:23:31;;;;;;;0.20;0.10;;;;;;;3.05;82.56;94815.63;107441;1268;129152;-83
2022/02/07 00:26:04;;;;;;;0.10;0.10;;;;;;;2.97;82.73;94811.20;107250;1268;179069;-83
2022/02/07 00:28:35;;;;;;;0.10;0.10;;;;;;;2.95;82.92;94804.81;107363;1268;207602;-83
2022/02/07 00:31:07;;;;;;;0.20;0.20;;;;;;;2.99;82.91;94803.54;107380;1270;120981;-83
2022/02/07 00:33:38;;;;;;;1.70;0.40;;;;;;;3.02;82.89;94790.42;106087;1270;1847974;-83
2022/02/07 00:36:13;;;;;;;0.60;0.30;;;;;;;3.09;82.66;94789.73;107360;1268;111439;-83
2022/02/07 00:38:47;;;;;;;0.60;0.30;;;;;;;3.08;82.64;94798.05;107436;1270;212535;-83
2022/02/07 00:41:20;;;;;;;0.10;0.10;;;;;;;3.05;82.66;94794.15;107368;1268;145224;-83
2022/02/07 00:43:58;;;;;;;0.20;0.20;;;;;;;3.02;82.70;94788.76;107398;1268;150238;-83
2022/02/07 00:46:35;;;;;;;0.10;0.10;;;;;;;3.06;82.67;94780.65;107293;1267;170472;-83
2022/02/07 00:49:09;;;;;;;0.20;0.10;;;;;;;3.14;82.49;94778.95;106165;1270;1774642;-83
2022/02/07 00:51:40;;;;;;;0.30;0.20;;;;;;;3.13;82.43;94772.73;106523;1268;1275297;-83
2022/02/07 00:54:11;;;;;;;0.30;0.10;;;;;;;3.18;82.35;94771.05;107442;1270;135705;-83
2022/02/07 00:56:43;;;;;;;0.40;0.10;;;;;;;3.20;82.28;94770.66;107553;1269;133367;-83
2022/02/07 00:59:14;;;;;;;0.10;0.10;;;;;;;3.24;82.10;94766.14;106381;1270;1560197;-83
2022/02/07 01:01:46;;;;;;;0.00;0.00;;;;;;;3.27;81.94;94773.08;107590;1270;190714;-83
2022/02/07 01:04:17;;;;;;;0.10;0.10;;;;;;;3.29;81.85;94764.63;105362;1268;1464732;-82
2022/02/07 01:06:48;;;;;;;0.50;0.10;;;;;;;3.29;81.87;94759.70;107236;1268;202623;-82
2022/02/07 01:09:25;;;;;;;0.30;0.20;;;;;;;3.27;81.82;94768.42;107065;1270;258885;-82
2022/02/07 01:12:10;;;;;;;0.10;0.10;;;;;;;3.26;81.76;94779.89;105116;1270;1768855;-82
2022/02/07 01:14:53;;;;;;;0.20;0.10;;;;;;;3.31;81.82;94765.43;107536;1270;251031;-83
2022/02/07 01:23:19;;;;;;;0.10;0.10;;;;;;;3.15;82.42;94762.20;107150;1270;224306;-83
2022/02/07 01:46:20;;;;;;;0.10;0.10;;;;;;;2.90;85.02;94752.46;106118;1270;1637720;-83
2022/02/07 01:49:05;;;;;;;0.10;0.10;;;;;;;2.83;85.47;94748.71;107415;1270;234740;-82
2022/02/07 01:54:33;;;;;;;1.40;0.10;;;;;;;2.74;86.19;94727.80;105408;1268;2656339;-82
2022/02/07 01:57:10;;;;;;;0.20;0.10;;;;;;;2.69;86.60;94723.60;107331;1268;280367;-82
2022/02/07 01:59:43;;;;;;;0.20;0.20;;;;;;;2.63;87.05;94730.55;106128;1270;2056459;-82
2022/02/07 02:02:14;;;;;;;0.20;0.10;;;;;;;2.60;87.35;94723.20;106206;1270;1966732;-82
2022/02/07 02:04:47;;;;;;;0.10;0.10;;;;;;;2.55;87.41;94718.69;107100;1268;244676;-81
2022/02/07 02:07:19;;;;;;;0.40;0.20;;;;;;;2.51;87.33;94707.31;107356;1268;202647;-82
2022/02/07 02:09:50;;;;;;;0.70;0.20;;;;;;;2.43;87.42;94694.30;107200;1268;212982;-83
2022/02/07 02:12:25;;;;;;;0.10;0.10;;;;;;;2.38;87.33;94700.19;106270;1268;1350585;-82
2022/02/07 02:15:04;;;;;;;0.30;0.30;;;;;;;2.30;87.51;94681.75;106220;1268;1784004;-83
2022/02/07 02:37:27;;;;;;;0.10;0.10;;;;;;;1.80;90.44;94690.88;106231;1270;2092830;-82
2022/02/07 02:45:38;;;;;;;0.20;0.10;;;;;;;1.90;90.60;94693.55;107528;1268;145514;-83
2022/02/07 02:48:17;;;;;;;0.20;0.10;;;;;;;1.91;90.27;94694.23;107336;1268;233660;-83
2022/02/07 02:50:51;;;;;;;0.30;0.10;;;;;;;1.94;90.24;94699.80;106332;1268;1583899;-81
2022/02/07 02:53:23;;;;;;;0.10;0.10;;;;;;;1.96;90.07;94688.08;107439;1268;173888;-83
2022/02/07 02:55:55;;;;;;;0.20;0.10;;;;;;;1.98;89.94;94692.25;105006;1270;1895357;-83
2022/02/07 02:58:24;;;;;;;;;;;;;;;2.00;89.82;94688.48;105346;1268;1909447;-83
2022/02/07 03:00:56;;;;;;;0.10;0.10;;;;;;;2.01;89.66;94691.10;105049;1268;1790513;-82
2022/02/07 03:03:27;;;;;;;0.10;0.10;;;;;;;2.02;89.34;94692.08;107281;1270;171577;-83
2022/02/07 03:05:58;;;;;;;0.10;0.10;;;;;;;2.03;89.42;94689.45;106149;1270;1511175;-83
2022/02/07 03:08:29;;;;;;;0.50;0.10;;;;;;;2.02;89.41;94688.94;107369;1268;183137;-83
2022/02/07 03:11:04;;;;;;;0.20;0.20;;;;;;;2.02;89.59;94682.20;107300;1268;136519;-83
2022/02/07 03:13:48;;;;;;;0.30;0.30;;;;;;;2.03;89.59;94676.77;107309;1270;166145;-83
2022/02/07 03:16:39;;;;;;;1.20;0.60;;;;;;;2.02;89.72;94665.27;107526;1270;111352;-82
2022/02/07 03:19:12;;;;;;;1.90;0.40;;;;;;;2.00;90.02;94654.88;107525;1270;113023;-83
2022/02/07 03:21:44;;;;;;;0.30;0.20;;;;;;;1.98;89.93;94661.39;107373;1270;263364;-83
2022/02/07 03:24:16;;;;;;;0.10;0.10;;;;;;;1.98;89.99;94680.04;107457;1268;211975;-83
2022/02/07 03:26:48;;;;;;;0.30;0.30;;;;;;;1.99;89.75;94678.41;107330;1268;238214;-82
2022/02/07 03:29:19;;;;;;;0.60;0.50;;;;;;;2.00;89.94;94681.59;105980;1269;2152933;-82
2022/02/07 03:31:51;;;;;;;0.40;0.30;;;;;;;2.02;89.83;94679.21;107411;1269;125728;-83
2022/02/07 03:34:22;;;;;;;0.40;0.10;;;;;;;2.05;89.73;94675.90;107573;1270;97474;-83
2022/02/07 03:36:53;;;;;;;0.20;0.10;;;;;;;2.02;89.54;94668.55;107520;1268;101918;-82
2022/02/07 03:39:24;;;;;;;0.00;0.00;;;;;;;2.03;89.44;94668.17;107297;1270;127688;-83
2022/02/07 03:41:55;;;;;;;0.40;0.20;;;;;;;2.06;89.30;94650.55;107366;1268;127670;-82
2022/02/07 03:44:26;;;;;;;0.60;0.30;;;;;;;2.06;89.30;94644.48;107521;1268;127252;-83
2022/02/07 03:46:57;;;;;;;0.20;0.20;;;;;;;2.06;89.32;94642.96;107338;1268;177638;-83
2022/02/07 03:49:28;;;;;;;0.60;0.30;;;;;;;2.05;89.15;94635.76;107254;1270;199939;-82
2022/02/07 03:51:59;;;;;;;0.20;0.20;;;;;;;2.07;89.22;94627.05;107411;1268;209531;-82
2022/02/07 03:54:30;;;;;;;0.20;0.20;;;;;;;2.06;89.09;94621.16;106347;1269;1552513;-82
2022/02/07 03:57:01;;;;;;;0.60;0.10;;;;;;;2.04;89.22;94629.75;105576;1268;2546230;-83
2022/02/07 03:59:40;;;;;;;0.30;0.20;;;;;;;2.03;89.18;94639.91;105745;1271;1813597;-83
2022/02/07 04:02:12;;;;;;;0.20;0.10;;;;;;;2.01;89.11;94638.09;107367;1270;214414;-83
2022/02/07 04:04:47;;;;;;;0.10;0.10;;;;;;;2.00;89.04;94643.96;106016;1268;2160058;-83
2022/02/07 04:07:19;;;;;;;1.60;0.30;;;;;;;1.99;89.18;94645.22;107487;1270;124341;-82
2022/02/07 04:09:54;;;;;;;0.30;0.20;;;;;;;2.00;89.27;94635.34;107518;1268;142413;-83
2022/02/07 04:12:28;;;;;;;0.10;0.10;;;;;;;2.01;89.25;94638.30;106572;1267;1384058;-82
2022/02/07 04:15:00;;;;;;;0.10;0.10;;;;;;;2.05;89.14;94641.55;106099;1268;1651983;-83
2022/02/07 04:17:33;;;;;;;0.20;0.20;;;;;;;2.09;88.97;94640.68;107411;1268;154117;-83
2022/02/07 04:20:05;;;;;;;0.10;0.10;;;;;;;2.11;88.88;94648.05;106208;1268;1841931;-83
2022/02/07 04:22:37;;;;;;;0.10;0.10;;;;;;;2.14;88.72;94656.52;107406;1268;145502;-83
2022/02/07 04:25:09;;;;;;;0.20;0.10;;;;;;;2.21;88.67;94661.98;105739;1269;1951401;-83
2022/02/07 04:27:41;;;;;;;0.40;0.30;;;;;;;2.26;88.52;94671.80;107449;1268;135789;-83
2022/02/07 04:30:13;;;;;;;0.10;0.10;;;;;;;2.29;88.45;94672.29;105727;1270;2613020;-83
2022/02/07 04:32:44;;;;;;;1.00;0.20;;;;;;;2.32;88.37;94677.59;107580;1270;114908;-83
2022/02/07 04:35:16;;;;;;;0.50;0.10;;;;;;;2.32;88.14;94677.13;105226;1270;1850117;-83
2022/02/07 04:37:47;;;;;;;0.10;0.10;;;;;;;2.39;88.03;94689.05;107441;1268;154313;-81
2022/02/07 04:40:19;;;;;;;0.10;0.10;;;;;;;2.41;88.07;94692.97;107440;1268;141445;-83
2022/02/07 04:42:50;;;;;;;0.80;0.30;;;;;;;2.42;87.84;94694.48;107370;1270;190675;-83
2022/02/07 04:45:33;;;;;;;0.90;0.40;;;;;;;2.46;87.81;94691.88;107482;1268;119772;-83
2022/02/07 04:48:29;;;;;;;0.60;0.30;;;;;;;2.44;87.79;94685.04;107449;1268;127487;-83
2022/02/07 04:54:08;;;;;;;0.50;0.40;;;;;;;2.46;87.58;94684.97;107169;1270;173033;-83
2022/02/07 04:59:51;;;;;;;0.50;0.40;;;;;;;2.44;87.43;94686.02;107100;1274;129698;-83
2022/02/07 05:02:38;;;;;;;0.70;0.40;;;;;;;2.44;87.54;94699.21;107314;1269;158971;-83
2022/02/07 05:05:23;;;;;;;1.00;0.40;;;;;;;2.43;87.60;94703.83;107286;1268;199819;-83
2022/02/07 05:13:46;;;;;;;1.40;0.40;;;;;;;2.48;87.63;94720.25;107414;1269;122763;-83
2022/02/07 05:16:23;;;;;;;0.50;0.30;;;;;;;2.49;87.64;94724.00;107290;1268;157082;-82
2022/02/07 05:18:57;;;;;;;0.50;0.20;;;;;;;2.51;87.68;94732.20;107462;1268;146663;-83
2022/02/07 05:21:28;;;;;;;0.50;0.20;;;;;;;2.50;87.68;94736.91;107179;1269;181905;-83
2022/02/07 05:24:00;;;;;;;1.30;0.90;;;;;;;2.50;87.77;94741.47;107299;1268;270624;-83
2022/02/07 05:26:33;;;;;;;0.70;0.60;;;;;;;2.46;87.79;94741.45;107158;1268;224756;-83
2022/02/07 05:29:05;;;;;;;0.40;0.40;;;;;;;2.42;87.97;94752.38;107349;1268;222960;-83
2022/02/07 05:31:37;;;;;;;0.40;0.30;;;;;;;2.38;88.23;94751.23;107283;1268;223772;-83
2022/02/07 05:34:09;;;;;;;0.40;0.40;;;;;;;2.33;88.51;94747.02;106097;1268;1881581;-82
2022/02/07 05:36:44;;;;;;;1.40;0.60;;;;;;;2.26;88.69;94760.14;107536;1268;196725;-82
2022/02/07 05:39:18;;;;;;;0.30;0.30;;;;;;;2.19;88.66;94761.39;107751;1267;126049;-83
2022/02/07 05:41:49;;;;;;;1.30;0.40;;;;;;;2.11;88.97;94771.67;107457;1268;117547;-82
2022/02/07 05:44:21;;;;;;;0.30;0.30;;;;;;;2.04;89.02;94772.23;107386;1268;191632;-83
2022/02/07 05:46:52;;;;;;;0.80;0.30;;;;;;;1.99;89.49;94768.92;107330;1268;174630;-82
2022/02/07 05:49:24;;;;;;;0.50;0.30;;;;;;;1.97;89.68;94769.08;107334;1268;170576;-83
2022/02/07 05:51:55;;;;;;;1.20;0.60;;;;;;;1.96;89.85;94774.82;107226;1268;154743;-82
2022/02/07 05:54:27;;;;;;;0.60;0.30;;;;;;;1.97;90.09;94785.96;104910;1270;2124714;-82
2022/02/07 05:56:58;;;;;;;1.00;0.40;;;;;;;1.99;90.45;94781.95;107380;1269;177427;-82
2022/02/07 05:59:29;;;;;;;1.20;0.70;;;;;;;1.98;90.58;94787.64;105800;1268;1927832;-82
2022/02/07 06:02:00;;;;;;;0.20;0.20;;;;;;;1.94;90.69;94792.30;104625;1268;2001283;-82
2022/02/07 06:04:31;;;;;;;0.70;0.50;;;;;;;1.91;90.88;94794.55;105865;1268;2075054;-82
2022/02/07 06:07:03;;;;;;;0.60;0.50;;;;;;;1.90;91.01;94799.95;106026;1268;2010967;-83
2022/02/07 06:09:34;;;;;;;1.00;0.60;;;;;;;1.90;91.05;94801.48;107215;1268;260502;-82
2022/02/07 06:12:07;;;;;;;0.40;0.40;;;;;;;1.88;91.25;94796.52;107360;1268;151202;-83
2022/02/07 06:14:39;;;;;;;1.40;0.70;;;;;;;1.86;91.46;94796.16;105698;1269;2228128;-82
2022/02/07 06:17:10;;;;;;;0.70;0.60;;;;;;;1.86;91.51;94800.08;107388;1270;125586;-82
2022/02/07 06:19:42;;;;;;;0.80;0.50;;;;;;;1.86;91.38;94807.61;106110;1268;2038526;-82
2022/02/07 06:22:13;;;;;;;0.90;0.40;;;;;;;1.87;91.48;94807.80;106119;1268;1912472;-82
2022/02/07 06:24:44;;;;;;;1.40;0.60;;;;;;;1.88;91.72;94812.92;106229;1268;1985731;-82
2022/02/07 06:27:18;;;;;;;0.70;0.50;;;;;;;1.88;91.92;94824.31;107671;1269;136902;-83
2022/02/07 06:29:49;;;;;;;0.70;0.40;;;;;;;1.90;91.84;94824.30;107327;1268;179616;-82
2022/02/07 06:32:20;;;;;;;0.30;0.30;;;;;;;1.91;92.07;94824.77;107361;1270;192840;-82
2022/02/07 06:34:51;;;;;;;1.80;1.00;;;;;;;1.91;92.34;94831.04;107383;1268;151213;-83
2022/02/07 06:37:23;;;;;;;0.90;0.70;;;;;;;1.92;92.21;94839.02;106168;1270;1406844;-82
2022/02/07 06:39:54;;;;;;;0.90;0.60;;;;;;;1.94;92.54;94853.49;105967;1268;1946738;-82
2022/02/07 06:42:25;;;;;;;1.80;1.10;;;;;;;1.94;92.45;94859.08;107335;1270;139436;-83
2022/02/07 06:44:56;;;;;;;1.20;1.00;;;;;;;1.96;92.68;94859.29;107250;1268;243848;-82
2022/02/07 06:47:28;;;;;;;3.70;2.80;;;;;;;1.98;92.76;94866.25;106118;1270;1669066;-82
2022/02/07 06:49:59;;;;;;;2.10;1.60;;;;;;;1.96;92.69;94867.13;107401;1270;167462;-82
2022/02/07 06:52:31;;;;;;;1.80;1.20;;;;;;;1.96;92.70;94873.30;107401;1268;156201;-82
2022/02/07 06:55:02;;;;;;;3.10;0.80;;;;;;;1.94;92.75;94888.25;107239;1268;150920;-82
2022/02/07 06:57:35;;;;;;;0.40;0.40;;;;;;;1.92;92.74;94892.17;106132;1270;1798023;-82
2022/02/07 07:00:11;;;;;;;0.20;0.20;;;;;;;1.90;92.86;94904.00;107437;1268;116414;-82
2022/02/07 07:02:43;;;;;;;0.30;0.30;;;;;;;1.88;92.92;94926.22;107402;1268;177397;-82
2022/02/07 07:05:20;;;;;;;0.50;0.40;;;;;;;1.82;93.00;94940.91;107727;1269;113949;-82
2022/02/07 07:07:51;;;;;;;1.20;0.30;;;;;;;1.68;92.90;94958.42;107509;1268;114564;-82
2022/02/07 07:10:23;;;;;;;0.30;0.20;;;;;;;1.48;92.43;94944.42;106421;1270;1398089;-84
2022/02/07 07:13:02;;;;;;;0.20;0.20;;;;;;;1.27;92.50;95022.63;106078;1268;1938981;-83
2022/02/07 07:15:40;;;;;;;0.30;0.10;;;;;;;1.08;92.87;95050.81;107532;1268;115900;-84
2022/02/07 07:18:13;;;;;;;0.30;0.20;;;;;;;0.92;92.80;95031.66;107577;1270;122123;-83
2022/02/07 07:20:44;;;;;;;0.70;0.40;;;;;;;0.81;93.22;95039.40;106255;1270;1759652;-83
2022/02/07 07:23:16;;;;;;;0.60;0.20;;;;;;;0.71;93.33;95059.03;106307;1268;1633854;-83
2022/02/07 07:25:49;;;;;;;0.30;0.30;;;;;;;0.64;93.41;95059.82;107572;1270;138138;-83
2022/02/07 07:28:22;;;;;;;0.80;0.40;;;;;;;0.57;93.46;95092.48;104181;1268;2517134;-82
2022/02/07 07:30:59;;;;;;;0.40;0.30;;;;;;;0.54;93.50;95090.69;106354;1270;1743670;-83
2022/02/07 07:33:32;;;;;;;0.60;0.20;;;;;;;0.53;93.56;95080.98;107244;1268;277643;-82
2022/02/07 07:36:05;;;;;;;1.00;0.40;;;;;;;0.49;93.85;95079.40;106071;1268;1870145;-83
2022/02/07 07:38:37;;;;;;;0.60;0.60;;;;;;;0.46;93.52;95092.02;104444;1268;2659264;-83
2022/02/07 07:41:11;;;;;;;0.60;0.30;;;;;;;0.43;93.68;95078.76;106186;1268;1806704;-82
2022/02/07 07:43:46;;;;;;;0.40;0.30;;;;;;;0.41;93.76;95101.55;103716;1268;3200428;-83
2022/02/07 07:46:24;;;;;;;0.30;0.20;;;;;;;0.40;93.99;95081.00;105785;1268;2667068;-82
2022/02/07 07:49:01;;;;;;;0.70;0.40;;;;;;;0.41;94.02;95082.73;107250;1270;119754;-83
2022/02/07 07:51:42;;;;;;;0.20;0.20;;;;;;;0.41;94.18;95088.52;107273;1270;249188;-83
2022/02/07 08:02:38;;;;;;;2.40;0.60;;;;;;;0.50;94.36;95064.39;105934;1268;2060394;-84
2022/02/07 08:05:21;;;;;;;1.20;0.70;;;;;;;0.53;94.39;95077.06;107510;1268;128704;-84
2022/02/07 08:07:56;;;;;;;0.80;0.60;;;;;;;0.54;94.13;95097.98;107326;1268;257670;-85
2022/02/07 08:10:43;;;;;;;1.60;0.80;;;;;;;0.56;94.04;95100.50;106024;1268;1894678;-83
2022/02/07 08:13:17;;;;;;;0.80;0.60;;;;;;;0.58;93.71;95125.88;107401;1270;191245;-84
2022/02/07 08:15:50;;;;;;;1.60;1.20;;;;;;;0.61;93.34;95144.61;107358;1270;156906;-83
2022/02/07 08:18:28;;;;;;;2.10;1.10;;;;;;;0.60;93.42;95153.01;107407;1270;144067;-84
2022/02/07 08:21:00;;;;;;;2.20;1.50;;;;;;;0.61;92.97;95140.13;106011;1270;2167215;-85
2022/02/07 08:23:31;;;;;;;3.30;1.50;;;;;;;0.63;92.64;95151.60;107428;1270;187981;-83
2022/02/07 08:26:04;;;;;;;2.20;1.20;;;;;;;0.63;92.18;95146.17;106102;1268;1848520;-83
2022/02/07 08:28:35;;;;;;;1.80;0.90;;;;;;;0.63;91.48;95166.27;107460;1270;129398;-82
2022/02/07 08:31:06;;;;;;;3.70;1.80;;;;;;;0.64;90.94;95168.88;107440;1268;114949;-82
2022/02/07 08:33:38;;;;;;;2.40;1.30;;;;;;;0.65;89.99;95191.30;107378;1268;144395;-82
2022/02/07 08:36:12;;;;;;;2.10;1.20;;;;;;;0.68;89.39;95209.05;107281;1270;192074;-83
2022/02/07 08:38:44;;;;;;;3.00;2.10;;;;;;;0.68;88.83;95204.41;107541;1268;208464;-83
2022/02/07 08:41:16;;;;;;;3.00;2.20;;;;;;;0.67;88.28;95206.48;106847;1268;1272214;-82
2022/02/07 08:43:47;;;;;;;3.20;1.70;;;;;;;0.69;87.82;95210.73;106393;1268;1681731;-83
2022/02/07 08:46:18;;;;;;;2.70;1.90;;;;;;;0.70;87.57;95181.15;107445;1268;158008;-82
2022/02/07 08:48:50;;;;;;;2.50;2.00;;;;;;;0.69;87.15;95200.14;107330;1268;150447;-83
2022/02/07 08:51:22;;;;;;;6.70;2.10;;;;;;;0.67;86.77;95204.88;107405;1268;172383;-82
2022/02/07 08:53:54;;;;;;;4.00;1.50;;;;;;;0.65;86.90;95199.34;107182;1268;204014;-82
2022/02/07 08:56:41;;;;;;;3.30;1.80;;;;;;;0.63;86.53;95213.25;107228;1270;177906;-83
2022/02/07 08:59:12;;;;;;;2.20;1.30;;;;;;;0.62;86.54;95222.52;107469;1270;120896;-83
2022/02/07 09:01:50;;;;;;;2.80;1.60;;;;;;;0.63;86.19;95239.95;107740;1268;132285;-83
2022/02/07 09:07:22;;;;;;;3.70;1.90;;;;;;;0.74;86.01;95235.67;107613;1270;119534;-82
2022/02/07 09:09:54;;;;;;;3.40;2.00;;;;;;;0.81;85.13;95248.54;107501;1268;123442;-82
2022/02/07 09:12:26;;;;;;;1.70;1.30;;;;;;;0.86;84.83;95251.09;107555;1268;161141;-83
2022/02/07 09:15:01;;;;;;;4.50;1.80;;;;;;;0.91;84.62;95271.01;107469;1268;129401;-83
2022/02/07 09:17:33;;;;;;;3.90;1.90;;;;;;;0.99;84.91;95274.30;107461;1268;124714;-82
2022/02/07 09:20:06;;;;;;;3.70;2.00;;;;;;;1.04;84.28;95280.86;107315;1268;153942;-82
2022/02/07 09:22:37;;;;;;;3.70;1.80;;;;;;;1.08;84.09;95293.67;107587;1268;170873;-83
2022/02/07 09:25:10;;;;;;;4.50;2.20;;;;;;;1.08;84.02;95275.66;107539;1270;96863;-82
2022/02/07 09:27:42;;;;;;;3.30;1.60;;;;;;;1.10;83.38;95266.59;107485;1270;113218;-83
2022/02/07 09:30:14;;;;;;;2.10;1.30;;;;;;;1.09;83.27;95287.77;107534;1270;147109;-82
2022/02/07 09:32:46;;;;;;;4.40;2.00;;;;;;;1.04;83.11;95297.09;106662;1269;1866254;-83
2022/02/07 09:35:19;;;;;;;3.70;1.70;;;;;;;1.00;82.90;95285.80;108021;1268;159485;-83
2022/02/07 09:37:52;;;;;;;5.70;2.90;;;;;;;0.96;83.15;95294.09;105351;1268;2012295;-81
2022/02/07 09:40:25;;;;;;;4.00;2.40;;;;;;;0.92;83.03;95299.76;106478;1270;2024774;-83
2022/02/07 09:42:59;;;;;;;6.30;2.90;;;;;;;0.95;82.64;95294.56;106784;1267;1761730;-83
2022/02/07 09:45:34;;;;;;;6.70;1.90;;;;;;;0.99;82.61;95309.27;108061;1270;41882;-83
2022/02/07 09:48:08;;;;;;;5.10;1.40;;;;;;;0.99;82.09;95307.75;108010;1269;69931;-82
2022/02/07 09:50:40;;;;;;;31.20;13.50;;;;;;;0.98;82.33;95328.70;108018;1269;44666;-83
2022/02/07 09:53:12;;;;;;;17.20;5.90;;;;;;;1.00;82.38;95333.65;107437;1268;142479;-83
2022/02/07 09:55:45;;;;;;;8.80;4.00;;;;;;;1.00;82.03;95333.45;107542;1270;104943;-83
2022/02/07 09:58:17;;;;;;;7.30;3.00;;;;;;;0.94;81.61;95341.41;107615;1270;120070;-83
2022/02/07 10:00:49;;;;;;;12.90;6.20;;;;;;;0.89;81.49;95353.80;107600;1268;99936;-82
2022/02/07 10:03:26;;;;;;;3.30;1.50;;;;;;;0.87;82.21;95360.20;107452;1270;122780;-82
2022/02/07 10:06:04;;;;;;;4.00;1.70;;;;;;;0.88;82.35;95368.20;107600;1268;93892;-82
2022/02/07 10:08:46;;;;;;;2.30;1.70;;;;;;;0.89;81.66;95380.73;107406;1270;134077;-83
2022/02/07 10:11:31;;;;;;;2.60;1.10;;;;;;;0.84;81.76;95374.57;107671;1270;109817;-83
2022/02/07 10:14:09;;;;;;;2.20;1.20;;;;;;;0.82;81.97;95385.91;107554;1270;96950;-84
2022/02/07 10:16:52;;;;;;;1.50;1.30;;;;;;;0.83;81.78;95383.31;107290;1268;160532;-84
2022/02/07 10:19:40;;;;;;;2.10;1.10;;;;;;;0.82;81.57;95390.35;107479;1268;186626;-83
2022/02/07 10:40:25;;;;;;;3.30;2.10;;;;;;;0.74;82.20;95376.73;105902;1270;2057924;-83
2022/02/07 10:43:20;;;;;;;5.10;1.50;;;;;;;0.72;82.26;95382.23;107182;1270;219470;-83
2022/02/07 10:46:05;;;;;;;2.50;1.30;;;;;;;0.67;83.20;95404.96;107366;1270;210834;-83
2022/02/07 10:48:41;;;;;;;2.30;1.10;;;;;;;0.64;82.95;95427.58;107416;1270;116197;-83
2022/02/07 10:51:17;;;;;;;0.90;0.80;;;;;;;0.69;82.87;95421.11;107682;1270;115002;-84
2022/02/07 10:53:51;;;;;;;2.10;1.20;;;;;;;0.73;82.81;95424.34;107495;1269;136088;-83
2022/02/07 10:56:26;;;;;;;1.80;1.30;;;;;;;0.74;83.13;95430.92;106091;1270;1845332;-84
2022/02/07 10:58:58;;;;;;;3.90;1.60;;;;;;;0.74;82.85;95429.16;107640;1270;136905;-83
2022/02/07 11:01:44;;;;;;;3.10;1.30;;;;;;;0.75;82.83;95420.30;105833;1270;2163959;-84
2022/02/07 11:04:20;;;;;;;3.30;2.00;;;;;;;0.76;83.06;95434.70;106224;1268;2025886;-84
2022/02/07 11:06:58;;;;;;;4.90;1.50;;;;;;;0.74;83.28;95437.29;105986;1268;2048996;-83
2022/02/07 11:09:37;;;;;;;2.70;1.20;;;;;;;0.71;83.17;95421.41;107444;1270;205297;-84
2022/02/07 11:12:25;;;;;;;2.40;1.40;;;;;;;0.69;82.93;95440.51;106061;1270;1859732;-84
2022/02/07 11:15:11;;;;;;;1.50;0.80;;;;;;;0.69;83.09;95438.84;104989;1269;3352586;-84
2022/02/07 11:18:10;;;;;;;1.80;1.00;;;;;;;0.70;82.88;95452.61;106357;1270;2002735;-84
2022/02/07 11:20:57;;;;;;;1.50;1.20;;;;;;;0.73;82.88;95458.98;107487;1270;140165;-84
2022/02/07 11:23:43;;;;;;;1.90;1.10;;;;;;;0.74;82.89;95465.98;107194;1270;259455;-84
2022/02/07 11:26:38;;;;;;;3.80;1.70;;;;;;;0.73;83.26;95471.55;107672;1268;141115;-82
2022/02/07 11:29:39;;;;;;;2.30;1.40;;;;;;;0.70;83.45;95457.83;105653;1268;2519507;-83
2022/02/07 11:32:49;;;;;;;1.30;0.90;;;;;;;0.69;83.81;95475.45;107474;1268;130569;-84
2022/02/07 11:35:24;;;;;;;3.00;1.30;;;;;;;0.64;84.44;95478.02;107353;1270;148680;-83
2022/02/07 11:38:13;;;;;;;1.60;1.20;;;;;;;0.52;85.04;95477.45;105792;1270;2121321;-83
2022/02/07 11:41:01;;;;;;;3.80;1.20;;;;;;;0.43;85.66;95496.63;107264;1270;221202;-83
2022/02/07 11:43:34;;;;;;;3.30;1.30;;;;;;;0.43;85.65;95495.45;105733;1268;2238255;-83
2022/02/07 11:46:12;;;;;;;6.70;1.50;;;;;;;0.44;85.60;95488.11;106244;1269;1762566;-84
2022/02/07 11:48:47;;;;;;;1.70;0.90;;;;;;;0.46;85.89;95513.63;104575;1269;2361083;-83
2022/02/07 11:51:21;;;;;;;2.40;1.20;;;;;;;0.47;86.00;95525.48;106003;1268;2019537;-82
2022/02/07 11:53:58;;;;;;;1.20;1.10;;;;;;;0.46;85.65;95535.48;106457;1270;1531641;-83
2022/02/07 11:56:35;;;;;;;2.80;1.10;;;;;;;0.45;85.99;95530.09;105542;1268;2687513;-83
2022/02/07 11:59:15;;;;;;;3.30;1.60;;;;;;;0.42;86.48;95525.24;107345;1270;140989;-82
2022/02/07 12:02:07;;;;;;;3.90;1.70;;;;;;;0.37;86.71;95550.77;107667;1268;120181;-82
2022/02/07 12:04:43;;;;;;;1.50;1.00;;;;;;;0.31;87.64;95550.02;107404;1268;181140;-82
2022/02/07 12:07:36;;;;;;;8.40;1.50;;;;;;;0.24;87.82;95558.30;106340;1269;1981048;-82
2022/02/07 12:10:36;;;;;;;3.30;1.80;;;;;;;0.19;88.59;95544.02;106152;1269;2117210;-82
2022/02/07 12:13:30;;;;;;;2.10;1.40;;;;;;;0.18;88.58;95575.69;107298;1270;159961;-83
2022/02/07 12:16:12;;;;;;;3.70;1.60;;;;;;;0.23;88.31;95583.33;107438;1268;121726;-82
2022/02/07 12:18:46;;;;;;;3.00;1.70;;;;;;;0.30;87.81;95583.11;107500;1268;144868;-82
2022/02/07 12:21:28;;;;;;;3.20;1.70;;;;;;;0.42;87.68;95585.42;107280;1270;156516;-82
2022/02/07 12:24:04;;;;;;;4.40;1.90;;;;;;;0.51;87.32;95581.27;107329;1270;145951;-82
2022/02/07 12:26:46;;;;;;;2.20;1.30;;;;;;;0.50;86.90;95590.18;106349;1270;1509893;-82
2022/02/07 12:29:31;;;;;;;4.50;1.90;;;;;;;0.54;86.46;95584.80;107538;1268;200840;-82
2022/02/07 12:32:03;;;;;;;2.40;2.10;;;;;;;0.53;86.30;95598.86;106086;1270;1803378;-82
2022/02/07 12:34:40;;;;;;;3.10;1.70;;;;;;;0.54;86.32;95597.73;104279;1269;2381888;-82
2022/02/07 12:37:18;;;;;;;2.40;1.30;;;;;;;0.54;86.13;95614.16;106219;1269;1772175;-82
2022/02/07 12:39:56;;;;;;;6.80;2.10;;;;;;;0.63;85.89;95611.02;105384;1268;2854828;-82
2022/02/07 12:42:28;;;;;;;3.20;2.00;;;;;;;0.70;85.89;95622.59;106476;1268;1506063;-82
2022/02/07 12:45:04;;;;;;;4.10;2.10;;;;;;;0.74;85.48;95612.90;105152;1270;3070446;-82
2022/02/07 12:47:40;;;;;;;3.80;2.50;;;;;;;0.66;85.01;95622.73;105910;1270;1741476;-82
2022/02/07 12:50:16;;;;;;;5.20;2.40;;;;;;;0.59;85.21;95633.66;105624;1269;2553459;-82
2022/02/07 12:52:49;;;;;;;1.40;1.30;;;;;;;0.63;85.21;95642.61;107464;1270;114305;-79
2022/02/07 12:55:20;;;;;;;3.90;2.90;;;;;;;0.61;84.69;95632.42;107165;1270;235622;-81
2022/02/07 12:57:53;;;;;;;5.00;2.30;;;;;;;0.60;84.77;95656.04;107401;1270;124964;-82
2022/02/07 13:00:24;;;;;;;4.80;2.10;;;;;;;0.65;84.64;95656.46;106337;1270;1452243;-82
2022/02/07 13:03:06;;;;;;;2.30;1.70;;;;;;;0.69;84.50;95666.08;102537;1270;1838183;-82
2022/02/07 13:05:38;;;;;;;5.20;2.70;;;;;;;0.76;84.74;95666.28;103781;1270;1922513;-83
2022/02/07 13:08:17;;;;;;;3.40;2.10;;;;;;;0.80;84.43;95676.83;104121;1268;3526040;-83
2022/02/07 13:10:57;;;;;;;4.60;2.50;;;;;;;0.87;84.24;95667.06;106412;1270;2670905;-82
2022/02/07 13:13:39;;;;;;;5.80;2.60;;;;;;;0.90;83.96;95667.52;105996;1270;2037638;-82
2022/02/07 13:16:12;;;;;;;5.40;2.80;;;;;;;0.91;83.78;95676.15;106123;1270;1815676;-82
2022/02/07 13:18:45;;;;;;;5.10;2.80;;;;;;;0.84;84.41;95681.89;104404;1270;2191563;-82
2022/02/07 13:21:18;;;;;;;5.10;2.50;;;;;;;0.71;84.36;95687.65;103786;1268;5094851;-82
2022/02/07 13:23:52;;;;;;;6.00;2.00;;;;;;;0.65;84.68;95686.20;105813;1268;1996045;-81
2022/02/07 13:26:25;;;;;;;2.20;1.90;;;;;;;0.57;84.99;95698.88;107415;1268;108405;-82
2022/02/07 13:29:02;;;;;;;5.20;2.30;;;;;;;0.58;84.90;95704.67;105554;1268;2583030;-82
2022/02/07 13:31:39;;;;;;;6.10;2.70;;;;;;;0.59;84.88;95713.35;105756;1269;2113195;-82
2022/02/07 13:34:26;;;;;;;3.20;1.90;;;;;;;0.63;84.78;95711.77;105971;1268;2011992;-82